Details From EDDM - Muenchen Franz-josef Strauss
To UDYZ - Zvartnots
Flight Number -
Tags Generated
Created
Modified
Stats Distance 1,474 nm / 2,730 km
Max Altitude 0 ft / 0 m
Waypoints 7
Social Downloads 0
Likes 0
Share VATSIM

Download

Looking for another format? Having issues loading an existing format? Contact us
Advertisement - Login to hide

Notes

Generated

Route

EDDM GYR BAISA IDSAR PIDIT ZVR UDYZ

ID Type Via Altitude Latitude Longitude Leg Dist Tot Dist Heading (true) Name
O EDDM APT - 0 ft / 0 m 48.34069˚ 11.75108˚ - 0 nm - -
GYR NDB - 0 ft / 0 m 47.66005˚ 17.71792˚ 243 nm 243 nm 97° / 102° GYOR NDB
BAISA FIX - 0 ft / 0 m 46.65556˚ 23.35057˚ 237 nm 480 nm 103° / 107° -
IDSAR FIX - 0 ft / 0 m 45.39133˚ 28.80004˚ 239 nm 720 nm 106° / 110° -
PIDIT FIX - 0 ft / 0 m 43.79416˚ 34.25014˚ 251 nm 972 nm 110° / 114° -
ZVR VOR - 0 ft / 0 m 40.14719˚ 44.36696˚ 501 nm 1474 nm 112° / 119° YEREVAN VOR-DME
O UDYZ APT - 0 ft / 0 m 40.14715˚ 44.37329˚ 0 nm 1474 nm 90° / 90° -

Altitude Profile

Advertisement - Login to hide

Weather


0- 5 10 15 20 25 30 35+ Temperature / ° C

Clouds and Precipitation
Forecast for 2018-05-20 18:00 UTC. Updated 5 hours ago

Ground ~20,000 ft ~40,000 ft Winds

EDDM

Details ICAO EDDM (MUC)
Name Muenchen Franz-Josef Strauss
Region Germany - Civil
Timezone Europe/Berlin (UTC+2.0)
Stats Elevation 1,487 ft / 453 m (AMSL)
Location 48.353786° 11.786117°
Runways 2
Magnetic Variation 3.214° E

METAR

EDDM 202150Z 06006KT 030V090 CAVOK 15/07 Q1017 NOSIG

Decode

TAF

TAF EDDM 201700Z 2018/2124 08007KT CAVOK

Decode

Departure Runways

ID Width Length Bearing (true) Bearing (mag) Surface Threshold Offset Overrun Length
08L 197 ft / 60 m 13,086 ft / 3,989 m 83.38° 80.17° Concrete 0 ft / 0 m 0 ft / 0 m
08R 197 ft / 60 m 13,086 ft / 3,989 m 83.37° 80.16° Concrete 0 ft / 0 m 0 ft / 0 m
26L 197 ft / 60 m 13,086 ft / 3,989 m 263.41° 260.20° Concrete 0 ft / 0 m 0 ft / 0 m
26R 197 ft / 60 m 13,086 ft / 3,989 m 263.42° 260.21° Concrete 0 ft / 0 m 0 ft / 0 m

UDYZ

Details ICAO UDYZ (EVN)
Name ZVARTNOTS
Region Armenia
Timezone Asia/Yerevan (UTC+4.0)
Stats Elevation 2,838 ft / 865 m (AMSL)
Location 40.147271° 44.395880°
Runways 1
Magnetic Variation 6.234° E

METAR

UDYZ 202200Z 01002KT 9999 -SHRA BKN040CB 16/15 Q1017 R09/190065 NOSIG

Decode

TAF

TAF UDYZ 201707Z 2018/2118 04006KT 9999 SCT040 BKN100 TEMPO 2018/2106 VRB20G30KT -TSRA BKN030CB

Decode

Destination Runways

ID Width Length Bearing (true) Bearing (mag) Surface Threshold Offset Overrun Length
09 184 ft / 56 m 12,601 ft / 3,841 m 89.59° 83.36° Asphalt 0 ft / 0 m 0 ft / 0 m
27 184 ft / 56 m 12,601 ft / 3,841 m 269.62° 263.39° Asphalt 0 ft / 0 m 0 ft / 0 m

Approach Navaids

Runway Type Ident Frequency Range Bearing (true) Bearing (mag) Slope Elevation
09 Localiser IZR 108.10 MHz 18 nm / 33 km 89.83° 83.60° - 2,838 ft / 865 m (AMSL)
09 Glidescope IZR 108.10 MHz 10 nm / 19 km 89.61° 83.37° 2.67° 2,838 ft / 865 m (AMSL)

Popular Alternatives